Terminal Aerodrome Forecast
Issued by NWS Sterling, VA

Current Version | Previous Version | Graphics & Text | Print | Product List | Glossary On
Versions: 1 2 3 4 5 6 7 8 9 10 11 12 13 14 15 16 17 18 19 20 21 22 23 24 25 26 27
773
FTUS41 KLWX 261128
TAFIAD
TAF
KIAD 261128Z 2612/2718 00000KT P6SM FEW050 SCT220
     FM261300 31010G18KT P6SM BKN250
     FM261800 29008KT P6SM BKN250
     FM262300 VRB04KT P6SM SCT090 BKN200
     FM270700 01005KT 3SM -RA BKN025 OVC050
     FM271000 02005KT 3SM -RA BKN008 OVC015
     FM271700 33008KT P6SM BKN015=

USA.gov is the U.S. government's official web portal to all federal, state and local government web resources and services.